Time;durP1;ratioP1;P1;durP2;ratioP2;P2;SDS_P1;SDS_P2;PMS_P1;PMS_P2;Temp;Humidity;BMP_temperature;BMP_pressure;BME280_temperature;BME280_humidity;BME280_pressure;Samples;Min_cycle;Max_cycle;Signal;HPM_P1;HPM_P2
2022/01/17 00:00:31;;;;;;;59.05;38.85;;;;;;;6.43;81.21;103046.22;5094456;28;20024;-70
2022/01/17 00:02:59;;;;;;;62.88;37.70;;;;;;;6.44;81.20;103050.72;5100935;28;20051;-70
2022/01/17 00:05:25;;;;;;;60.83;39.15;;;;;;;6.44;81.64;103050.72;5105495;28;20107;-70
2022/01/17 00:07:50;;;;;;;65.47;38.05;;;;;;;6.47;81.36;103055.88;5107217;28;20059;-70
2022/01/17 00:10:16;;;;;;;61.28;36.15;;;;;;;6.49;81.08;103072.28;5104137;28;20174;-70
2022/01/17 00:12:45;;;;;;;62.47;37.28;;;;;;;6.50;81.65;103080.38;5107233;28;20028;-70
2022/01/17 00:15:24;;;;;;;59.08;37.47;;;;;;;6.51;81.06;103079.34;5096064;28;20055;-70
2022/01/17 00:17:57;;;;;;;58.97;36.97;;;;;;;6.52;81.28;103081.06;5101420;28;20027;-70
2022/01/17 00:20:26;;;;;;;59.13;36.22;;;;;;;6.51;81.14;103079.34;5106258;28;20067;-70
2022/01/17 00:22:53;;;;;;;58.15;36.30;;;;;;;6.53;80.92;103082.81;5091455;28;20115;-70
2022/01/17 00:25:19;;;;;;;54.08;34.72;;;;;;;6.49;81.13;103081.41;5097384;28;20063;-70
2022/01/17 00:27:44;;;;;;;59.30;35.53;;;;;;;6.49;81.00;103081.41;5106122;28;20111;-70
2022/01/17 00:30:09;;;;;;;58.00;35.60;;;;;;;6.50;80.99;103088.66;5101094;28;20115;-70
2022/01/17 00:32:35;;;;;;;57.47;34.17;;;;;;;6.50;81.40;103085.03;5100124;28;20027;-69
2022/01/17 00:35:01;;;;;;;61.83;34.78;;;;;;;6.52;81.12;103078.28;5104981;28;20024;-70
2022/01/17 00:37:26;;;;;;;55.78;34.10;;;;;;;6.52;80.85;103075.53;5120849;27;20042;-71
2022/01/17 00:39:52;;;;;;;60.28;33.55;;;;;;;6.52;81.07;103061.75;5098646;28;20035;-70
2022/01/17 00:42:17;;;;;;;52.53;31.58;;;;;;;6.51;80.84;103060.03;5098997;28;20028;-70
2022/01/17 00:44:43;;;;;;;55.83;31.35;;;;;;;6.53;80.94;103066.25;5104001;28;20023;-71
2022/01/17 00:47:08;;;;;;;49.65;30.60;;;;;;;6.55;81.11;103066.91;5106668;28;20032;-70
2022/01/17 00:49:33;;;;;;;46.63;30.33;;;;;;;6.55;80.70;103069.69;5109790;28;20026;-70
2022/01/17 00:51:59;;;;;;;46.55;29.67;;;;;;;6.55;80.57;103077.97;5104970;28;20024;-70
2022/01/17 00:54:24;;;;;;;50.25;28.98;;;;;;;6.57;81.16;103078.66;5094867;28;20456;-69
2022/01/17 00:56:49;;;;;;;44.17;27.65;;;;;;;6.55;80.78;103088.13;5115313;27;20043;-70
2022/01/17 00:59:15;;;;;;;48.45;29.02;;;;;;;6.55;80.46;103077.97;5101614;28;20036;-70
2022/01/17 01:01:41;;;;;;;48.78;28.65;;;;;;;6.56;80.21;103084.34;5114072;27;20084;-70
2022/01/17 01:04:06;;;;;;;42.90;27.48;;;;;;;6.54;80.17;103079.00;5108549;28;20035;-70
2022/01/17 01:06:31;;;;;;;49.70;28.00;;;;;;;6.55;80.53;103089.00;5107625;28;20020;-70
2022/01/17 01:08:57;;;;;;;46.42;27.30;;;;;;;6.56;80.13;103087.09;5109554;28;20441;-70
2022/01/17 01:11:22;;;;;;;40.85;26.85;;;;;;;6.56;80.70;103087.97;5115359;28;20650;-70
2022/01/17 01:13:48;;;;;;;47.83;27.73;;;;;;;6.56;80.68;103093.50;5114727;28;20119;-70
2022/01/17 01:16:29;;;;;;;42.45;26.67;;;;;;;6.55;80.47;103100.03;5114667;28;20043;-70
2022/01/17 01:29:33;;;;;;;42.30;25.60;;;;;;;6.53;80.78;103096.59;5106828;28;20046;-70
2022/01/17 01:32:06;;;;;;;39.67;25.40;;;;;;;6.55;80.62;103089.00;5103736;28;20115;-70
2022/01/17 01:34:35;;;;;;;46.40;26.05;;;;;;;6.56;80.79;103074.19;5108770;28;20481;-70
2022/01/17 01:37:04;;;;;;;42.22;25.33;;;;;;;6.57;80.61;103081.41;5096668;28;20030;-70
2022/01/17 01:39:29;;;;;;;48.00;26.27;;;;;;;6.58;80.31;103082.28;5096475;28;20410;-70
2022/01/17 01:41:55;;;;;;;40.10;25.27;;;;;;;6.59;80.58;103084.84;5094265;28;20118;-70
2022/01/17 01:44:23;;;;;;;46.88;25.30;;;;;;;6.56;80.30;103087.97;5101363;28;20069;-70
2022/01/17 01:46:51;;;;;;;41.55;25.20;;;;;;;6.55;80.36;103088.13;5096892;28;20117;-70
2022/01/17 01:49:18;;;;;;;39.63;23.75;;;;;;;6.52;80.18;103100.38;5094858;28;20138;-70
2022/01/17 01:51:44;;;;;;;35.10;21.73;;;;;;;6.51;79.74;103098.66;5102771;28;20024;-70
2022/01/17 01:54:10;;;;;;;36.13;21.27;;;;;;;6.52;80.01;103113.31;5101410;28;20051;-70
2022/01/17 01:56:38;;;;;;;34.92;22.02;;;;;;;6.51;79.77;103108.81;5102040;28;20130;-70
2022/01/17 01:59:04;;;;;;;33.78;20.67;;;;;;;6.49;79.49;103106.25;5096357;28;20043;-70
2022/01/17 02:01:30;;;;;;;30.52;19.67;;;;;;;6.49;79.23;103099.88;5095432;28;20035;-70
2022/01/17 02:03:55;;;;;;;31.00;19.33;;;;;;;6.46;79.36;103095.56;5100148;27;20035;-70
2022/01/17 02:06:21;;;;;;;33.85;18.85;;;;;;;6.47;79.15;103100.03;5110632;28;20040;-70
2022/01/17 02:08:46;;;;;;;31.70;18.40;;;;;;;6.46;78.58;103101.06;5101045;28;20410;-70
2022/01/17 02:11:11;;;;;;;31.50;17.00;;;;;;;6.46;79.24;103105.72;5105339;28;20030;-70
2022/01/17 02:13:40;;;;;;;30.50;17.95;;;;;;;6.43;78.71;103108.81;5113825;27;20031;-70
2022/01/17 02:16:10;;;;;;;36.25;18.88;;;;;;;6.45;78.57;103104.88;5109341;28;20114;-70
2022/01/17 02:18:36;;;;;;;33.60;18.38;;;;;;;6.44;78.57;103108.63;5111584;28;20115;-70
2022/01/17 02:23:42;;;;;;;30.80;17.90;;;;;;;6.42;78.08;103118.13;5110339;27;20035;-70
2022/01/17 02:26:08;;;;;;;34.63;18.63;;;;;;;6.41;78.23;103113.66;5097078;28;20065;-70
2022/01/17 02:28:35;;;;;;;30.60;17.42;;;;;;;6.37;78.53;103102.97;5104237;27;20039;-70
2022/01/17 02:31:01;;;;;;;29.90;17.85;;;;;;;6.32;78.45;103096.22;5109000;28;20061;-70
2022/01/17 02:33:27;;;;;;;26.35;16.27;;;;;;;6.33;78.23;103097.97;5101540;28;20024;-70
2022/01/17 02:35:52;;;;;;;34.78;17.13;;;;;;;6.34;77.82;103094.16;5108692;27;20038;-70
2022/01/17 02:38:18;;;;;;;30.63;16.63;;;;;;;6.30;78.21;103101.06;5097215;27;20039;-70
2022/01/17 02:40:43;;;;;;;31.65;16.58;;;;;;;6.27;77.97;103106.91;5103448;28;20085;-70
2022/01/17 02:43:08;;;;;;;33.47;17.20;;;;;;;6.25;78.26;103104.31;5101495;28;20905;-70
2022/01/17 02:46:24;;;;;;;25.92;16.35;;;;;;;6.24;77.83;103099.81;5115934;27;20076;-70
2022/01/17 02:48:31;;;;;;;30.27;17.95;;;;;;;6.20;77.88;103108.59;5101221;27;20051;-70
2022/01/17 02:50:58;;;;;;;29.38;18.02;;;;;;;6.17;78.08;103100.66;5110508;27;20403;-70
2022/01/17 02:53:25;;;;;;;32.30;17.27;;;;;;;6.13;77.87;103101.03;5106618;28;20115;-70
2022/01/17 02:55:57;;;;;;;32.97;19.95;;;;;;;6.10;78.46;103101.34;5097956;28;20040;-70
2022/01/17 02:58:26;;;;;;;28.58;18.73;;;;;;;6.10;78.40;103112.38;5101215;28;20436;-70
2022/01/17 03:00:54;;;;;;;33.38;19.92;;;;;;;6.15;78.24;103106.34;5098397;27;20023;-70
2022/01/17 03:03:22;;;;;;;35.35;19.80;;;;;;;6.14;78.26;103105.50;5108253;28;20023;-70
2022/01/17 03:05:52;;;;;;;35.08;21.02;;;;;;;6.14;77.89;103094.47;5106899;28;20035;-70
2022/01/17 03:08:20;;;;;;;38.85;20.10;;;;;;;6.13;78.02;103095.50;5092436;28;20032;-70
2022/01/17 03:10:53;;;;;;;36.97;22.40;;;;;;;6.11;78.47;103103.06;5105622;28;20031;-70
2022/01/17 03:13:29;;;;;;;38.58;21.10;;;;;;;6.10;78.15;103095.84;5094026;28;20064;-70
2022/01/17 03:15:57;;;;;;;39.00;21.15;;;;;;;6.08;78.25;103092.38;5096026;28;20036;-70
2022/01/17 03:18:24;;;;;;;31.85;21.55;;;;;;;6.07;77.70;103087.91;5109444;28;20035;-70
2022/01/17 03:20:49;;;;;;;36.95;21.75;;;;;;;6.07;78.34;103096.16;5101966;28;20027;-70
2022/01/17 03:23:15;;;;;;;37.92;22.35;;;;;;;6.08;78.34;103103.41;5092905;28;20356;-70
2022/01/17 03:25:40;;;;;;;35.40;22.35;;;;;;;6.04;78.50;103095.63;5097440;28;20140;-70
2022/01/17 03:28:06;;;;;;;47.65;22.88;;;;;;;6.02;78.10;103083.94;5111944;28;20043;-70
2022/01/17 03:30:33;;;;;;;35.83;22.77;;;;;;;6.00;78.06;103089.59;5097489;28;20053;-70
2022/01/17 03:33:00;;;;;;;43.20;22.55;;;;;;;6.01;78.95;103084.94;5101230;28;20026;-70
2022/01/17 03:35:25;;;;;;;35.35;22.58;;;;;;;6.00;78.25;103081.31;5099501;28;20044;-70
2022/01/17 03:37:50;;;;;;;39.50;23.42;;;;;;;5.96;78.42;103088.22;5107888;28;20518;-69
2022/01/17 03:40:16;;;;;;;42.42;22.48;;;;;;;5.99;78.39;103104.41;5100197;28;20043;-70
2022/01/17 03:42:41;;;;;;;39.38;21.13;;;;;;;5.94;78.07;103095.81;5100029;28;20501;-70
2022/01/17 03:45:07;;;;;;;33.45;19.83;;;;;;;5.98;78.57;103105.47;5093999;28;20058;-70
2022/01/17 03:47:34;;;;;;;39.25;21.40;;;;;;;6.00;78.53;103097.00;5095988;28;20023;-70
2022/01/17 03:50:00;;;;;;;36.80;21.13;;;;;;;5.99;78.09;103106.31;5102193;28;20494;-70
2022/01/17 03:52:25;;;;;;;38.70;20.42;;;;;;;6.02;78.54;103103.22;5104035;28;20122;-70
2022/01/17 03:54:51;;;;;;;33.80;19.48;;;;;;;5.98;78.16;103108.22;5108329;28;20669;-70
2022/01/17 03:57:16;;;;;;;35.03;20.40;;;;;;;6.01;77.80;103096.88;5110512;28;20035;-70
2022/01/17 03:59:41;;;;;;;31.83;19.63;;;;;;;6.03;77.85;103097.53;5107947;28;20082;-70
2022/01/17 04:02:06;;;;;;;29.90;17.48;;;;;;;6.04;77.56;103096.50;5097361;28;20039;-70
2022/01/17 04:04:32;;;;;;;30.67;17.77;;;;;;;6.02;77.09;103100.47;5109740;28;20405;-70
2022/01/17 04:06:57;;;;;;;29.02;17.10;;;;;;;6.01;77.17;103104.25;5097202;28;20028;-70
2022/01/17 04:09:22;;;;;;;27.17;16.50;;;;;;;5.98;77.37;103104.59;5099759;28;20064;-70
2022/01/17 04:11:48;;;;;;;25.70;14.77;;;;;;;6.01;76.74;103107.00;5094615;28;20032;-70
2022/01/17 04:14:16;;;;;;;28.30;15.25;;;;;;;6.00;77.35;103111.66;5105702;28;20034;-70
2022/01/17 04:16:41;;;;;;;23.10;14.95;;;;;;;5.97;76.73;103113.88;5090768;28;20429;-69
2022/01/17 04:19:06;;;;;;;24.52;14.05;;;;;;;5.98;76.82;103105.47;5095149;28;20031;-70
2022/01/17 04:21:35;;;;;;;25.20;14.30;;;;;;;5.96;76.73;103113.03;5103264;28;20050;-70
2022/01/17 04:24:00;;;;;;;26.77;13.43;;;;;;;5.93;76.74;103109.72;5096333;28;20024;-70
2022/01/17 04:26:26;;;;;;;22.65;13.60;;;;;;;5.93;76.58;103109.72;5091675;28;20036;-70
2022/01/17 04:28:51;;;;;;;25.48;12.63;;;;;;;5.88;76.23;103110.19;5097066;28;20506;-70
2022/01/17 04:31:16;;;;;;;26.90;14.55;;;;;;;5.93;75.78;103124.38;5095466;28;20058;-70
2022/01/17 04:33:41;;;;;;;21.25;13.32;;;;;;;5.90;76.21;103125.56;5101448;28;20023;-70
2022/01/17 04:36:08;;;;;;;21.48;12.30;;;;;;;5.88;76.49;103124.84;5098059;28;20769;-69
2022/01/17 04:38:34;;;;;;;19.08;12.45;;;;;;;5.87;75.92;103120.38;5098969;28;20024;-70
2022/01/17 04:41:01;;;;;;;25.40;12.98;;;;;;;5.85;76.40;103121.56;5103348;28;20092;-70
2022/01/17 04:43:54;;;;;;;22.02;12.57;;;;;;;5.85;76.22;103124.31;5095119;28;20028;-69
2022/01/17 04:46:17;;;;;;;21.67;13.05;;;;;;;5.86;76.72;103117.78;5091545;28;20040;-70
2022/01/17 04:48:43;;;;;;;24.77;12.95;;;;;;;5.81;76.33;103111.91;5091476;28;20495;-70
2022/01/17 04:51:11;;;;;;;22.08;12.98;;;;;;;5.82;75.89;103114.50;5101291;28;20027;-70
2022/01/17 04:53:36;;;;;;;22.50;13.48;;;;;;;5.80;76.31;103111.03;5094818;28;20052;-70
2022/01/17 04:56:02;;;;;;;21.23;13.32;;;;;;;5.80;76.58;103115.69;5096125;28;20447;-70
2022/01/17 04:58:27;;;;;;;23.23;13.45;;;;;;;5.79;76.71;103113.97;5107313;28;20024;-70
2022/01/17 05:00:53;;;;;;;29.52;15.05;;;;;;;5.77;76.59;103110.50;5102153;28;20038;-70
2022/01/17 05:03:21;;;;;;;24.20;13.85;;;;;;;5.76;76.54;103122.56;5095465;28;20036;-70
2022/01/17 05:05:46;;;;;;;28.75;14.13;;;;;;;5.80;76.37;103134.97;5091528;28;20060;-70
2022/01/17 05:08:12;;;;;;;24.75;13.68;;;;;;;5.77;76.26;103127.03;5094308;28;20100;-70
2022/01/17 05:10:38;;;;;;;24.05;13.57;;;;;;;5.76;76.17;103125.31;5103374;28;20023;-70
2022/01/17 05:13:03;;;;;;;22.05;13.18;;;;;;;5.76;76.11;103139.09;5110494;28;20027;-70
2022/01/17 05:18:01;;;;;;;22.58;13.52;;;;;;;5.74;76.23;103149.41;5098330;28;20042;-70
2022/01/17 05:20:26;;;;;;;27.20;14.80;;;;;;;5.75;76.05;103164.94;5103382;28;20032;-70
2022/01/17 05:22:52;;;;;;;24.95;13.82;;;;;;;5.77;76.34;103149.09;5091615;28;20027;-70
2022/01/17 05:25:17;;;;;;;25.85;14.27;;;;;;;5.74;76.30;103153.06;5093398;28;20360;-70
2022/01/17 05:27:43;;;;;;;22.90;14.70;;;;;;;5.73;76.18;103154.06;5096482;28;20024;-70
2022/01/17 05:30:13;;;;;;;24.30;15.02;;;;;;;5.72;76.43;103162.50;5099161;28;20031;-70
2022/01/17 05:32:39;;;;;;;26.35;14.93;;;;;;;5.69;76.35;103160.94;5110899;28;20027;-70
2022/01/17 05:35:05;;;;;;;25.05;15.00;;;;;;;5.68;76.51;103155.59;5109167;28;20024;-70
2022/01/17 05:37:30;;;;;;;27.38;14.52;;;;;;;5.65;76.04;103163.16;5094807;28;20036;-70
2022/01/17 05:39:55;;;;;;;23.60;14.25;;;;;;;5.65;76.21;103163.16;5107287;27;20282;-69
2022/01/17 05:42:21;;;;;;;24.48;14.30;;;;;;;5.68;76.29;103159.22;5103109;28;20032;-70
2022/01/17 05:44:47;;;;;;;27.58;14.63;;;;;;;5.62;76.28;103169.00;5108227;28;20031;-70
2022/01/17 05:47:13;;;;;;;26.38;14.98;;;;;;;5.64;76.19;103172.44;5110361;27;20112;-70
2022/01/17 05:49:39;;;;;;;25.17;16.42;;;;;;;5.61;76.17;103169.16;5100809;28;20558;-70
2022/01/17 05:52:05;;;;;;;28.02;16.90;;;;;;;5.58;76.17;103162.09;5110647;28;20118;-70
2022/01/17 05:54:30;;;;;;;27.90;17.33;;;;;;;5.58;76.04;103162.09;5103290;28;20565;-70
2022/01/17 05:56:55;;;;;;;29.38;17.27;;;;;;;5.60;76.07;103160.03;5111767;28;20027;-70
2022/01/17 05:59:20;;;;;;;26.85;16.50;;;;;;;5.59;76.18;103163.81;5109339;28;20027;-70
2022/01/17 06:01:46;;;;;;;33.40;17.98;;;;;;;5.58;75.84;103167.59;5102233;28;20036;-70
2022/01/17 06:04:11;;;;;;;26.27;17.65;;;;;;;5.56;76.19;103175.16;5097743;28;20038;-70
2022/01/17 06:06:36;;;;;;;27.88;18.55;;;;;;;5.56;75.85;103171.53;5106822;28;20417;-70
2022/01/17 06:09:02;;;;;;;27.92;18.13;;;;;;;5.55;75.71;103173.44;5102823;28;20055;-70
2022/01/17 06:11:27;;;;;;;29.58;18.85;;;;;;;5.54;75.94;103168.97;5105232;28;20039;-70
2022/01/17 06:13:53;;;;;;;30.20;17.90;;;;;;;5.57;75.93;103167.75;5102544;28;20499;-70
2022/01/17 06:16:18;;;;;;;33.58;19.17;;;;;;;5.55;75.96;103178.94;5101047;28;20034;-70
2022/01/17 06:18:43;;;;;;;36.47;18.58;;;;;;;5.53;76.27;103180.97;5102286;28;20043;-70
2022/01/17 06:21:09;;;;;;;30.23;19.50;;;;;;;5.57;75.95;103173.25;5105197;28;20047;-70
2022/01/17 06:23:34;;;;;;;29.85;19.40;;;;;;;5.54;76.07;103176.34;5096301;28;20028;-70
2022/01/17 06:25:59;;;;;;;34.55;19.88;;;;;;;5.53;76.17;103180.13;5093027;28;20059;-70
2022/01/17 06:28:25;;;;;;;30.27;19.50;;;;;;;5.51;76.31;103182.19;5094489;28;20487;-70
2022/01/17 06:30:50;;;;;;;32.75;20.58;;;;;;;5.47;76.14;103173.38;5100805;28;20032;-70
2022/01/17 06:33:16;;;;;;;31.00;19.80;;;;;;;5.46;76.42;103185.41;5109250;28;20027;-71
2022/01/17 06:35:41;;;;;;;36.55;20.35;;;;;;;5.48;76.36;103177.88;5108518;28;20050;-70
2022/01/17 06:38:07;;;;;;;32.28;20.05;;;;;;;5.50;76.54;103186.84;5104530;28;20252;-70
2022/01/17 06:40:32;;;;;;;34.22;19.90;;;;;;;5.50;76.08;103189.59;5112348;27;20027;-70
2022/01/17 06:42:58;;;;;;;31.88;19.77;;;;;;;5.51;76.48;103196.81;5108922;28;20044;-70
2022/01/17 06:45:23;;;;;;;32.58;21.50;;;;;;;5.49;76.29;103201.63;5109987;27;20016;-70
2022/01/17 06:47:48;;;;;;;32.25;21.23;;;;;;;5.50;76.39;103205.22;5109197;27;20037;-70
2022/01/17 06:50:14;;;;;;;36.25;20.55;;;;;;;5.52;76.83;103193.03;5106259;27;20028;-70
2022/01/17 06:52:39;;;;;;;35.20;21.88;;;;;;;5.51;76.56;103194.06;5105810;28;20050;-71
2022/01/17 06:55:06;;;;;;;32.92;21.08;;;;;;;5.55;76.97;103198.22;5105207;28;20390;-65
2022/01/17 06:57:32;;;;;;;34.92;21.88;;;;;;;5.51;76.68;103216.09;5100729;27;20534;-66
2022/01/17 06:59:57;;;;;;;34.63;20.85;;;;;;;5.60;77.45;103225.28;5105621;28;20027;-66
2022/01/17 07:02:23;;;;;;;33.28;22.73;;;;;;;5.57;76.23;103236.63;5106071;28;20521;-67
2022/01/17 07:04:48;;;;;;;35.53;21.90;;;;;;;5.58;76.20;103239.25;5108194;28;20028;-69
2022/01/17 07:07:14;;;;;;;39.85;22.10;;;;;;;5.59;76.41;103240.97;5098315;28;20111;-67
2022/01/17 07:09:39;;;;;;;30.77;21.17;;;;;;;5.57;76.30;103262.28;5109819;27;20383;-67
2022/01/17 07:12:05;;;;;;;36.47;21.60;;;;;;;5.60;76.69;103259.22;5108651;27;20035;-66
2022/01/17 07:14:31;;;;;;;31.77;20.52;;;;;;;5.64;76.26;103232.19;5106926;28;20128;-67
2022/01/17 07:16:57;;;;;;;32.25;21.80;;;;;;;5.60;76.03;103220.63;5104349;27;20039;-67
2022/01/17 07:19:23;;;;;;;34.75;21.58;;;;;;;5.59;76.30;103224.44;5104197;27;20131;-67
2022/01/17 07:21:50;;;;;;;27.80;19.92;;;;;;;5.59;76.25;103207.91;5116069;27;20991;-66
2022/01/17 07:24:15;;;;;;;30.08;21.10;;;;;;;5.57;76.25;103204.41;5107242;27;20062;-67
2022/01/17 07:26:40;;;;;;;35.72;21.23;;;;;;;5.53;76.48;103186.50;5103964;27;20458;-67
2022/01/17 07:29:08;;;;;;;35.55;22.00;;;;;;;5.55;76.63;103176.19;5107595;27;20035;-67
2022/01/17 07:31:34;;;;;;;32.38;21.27;;;;;;;5.55;76.17;103187.22;5102133;27;20106;-67
2022/01/17 07:33:59;;;;;;;34.42;21.35;;;;;;;5.54;76.46;103199.25;5102820;27;20478;-69
2022/01/17 07:36:25;;;;;;;33.72;20.67;;;;;;;5.56;76.45;103207.34;5101710;27;20035;-67
2022/01/17 07:38:50;;;;;;;33.42;21.00;;;;;;;5.51;76.73;103223.50;5126545;27;20461;-68
2022/01/17 07:41:16;;;;;;;38.90;20.98;;;;;;;5.54;76.65;103221.31;5109075;27;20031;-69
2022/01/17 07:43:42;;;;;;;34.83;21.05;;;;;;;5.52;76.84;103226.09;5107125;27;20129;-68
2022/01/17 07:46:18;;;;;;;40.67;22.38;;;;;;;5.51;76.55;103213.34;5099697;27;20032;-68
2022/01/17 07:51:29;;;;;;;34.63;21.90;;;;;;;5.55;76.71;103227.66;5103277;28;20100;-66
2022/01/17 07:53:56;;;;;;;38.13;22.13;;;;;;;5.57;76.90;103231.13;5104480;27;20113;-68
2022/01/17 07:56:22;;;;;;;33.17;21.52;;;;;;;5.58;77.17;103243.84;5104823;28;20027;-68
2022/01/17 07:58:48;;;;;;;33.55;22.23;;;;;;;5.59;76.66;103257.50;5106707;28;20039;-67
2022/01/17 08:01:13;;;;;;;41.03;22.98;;;;;;;5.60;77.02;103258.34;5106941;27;20039;-69
2022/01/17 08:03:39;;;;;;;37.45;22.63;;;;;;;5.62;76.70;103265.44;5103574;28;20106;-67
2022/01/17 08:06:04;;;;;;;34.22;21.15;;;;;;;5.62;76.98;103270.09;5104104;28;20497;-67
2022/01/17 08:08:30;;;;;;;34.33;21.98;;;;;;;5.64;76.75;103268.03;5103644;28;20043;-67
2022/01/17 08:10:55;;;;;;;39.95;23.05;;;;;;;5.61;77.09;103274.69;5101675;27;20019;-66
2022/01/17 08:13:21;;;;;;;31.90;20.70;;;;;;;5.64;77.07;103290.06;5103262;27;20032;-66
2022/01/17 08:15:46;;;;;;;33.90;21.77;;;;;;;5.61;76.90;103282.97;5103729;28;20020;-67
2022/01/17 08:18:13;;;;;;;34.55;20.73;;;;;;;5.61;77.27;103274.69;5102675;28;20077;-66
2022/01/17 08:20:39;;;;;;;31.77;22.27;;;;;;;5.61;76.95;103262.81;5105614;27;20109;-67
2022/01/17 08:23:04;;;;;;;31.98;20.23;;;;;;;5.64;77.05;103268.88;5104515;27;20535;-67
2022/01/17 08:25:30;;;;;;;34.75;21.58;;;;;;;5.65;77.31;103278.00;5098894;28;20051;-67
2022/01/17 08:27:55;;;;;;;31.27;21.40;;;;;;;5.65;77.38;103276.09;5108106;27;20045;-66
2022/01/17 08:30:21;;;;;;;35.13;21.35;;;;;;;5.69;77.61;103271.16;5109631;27;20477;-66
2022/01/17 08:32:46;;;;;;;33.85;21.05;;;;;;;5.72;77.64;103279.09;5105403;27;20107;-67
2022/01/17 08:35:11;;;;;;;34.00;21.45;;;;;;;5.74;77.29;103285.31;5094291;28;20023;-67
2022/01/17 08:37:37;;;;;;;35.90;21.15;;;;;;;5.75;77.50;103280.66;5093427;28;20418;-68
2022/01/17 08:40:05;;;;;;;34.38;21.77;;;;;;;5.76;77.98;103291.53;5099349;28;20479;-68
2022/01/17 08:42:33;;;;;;;33.15;21.25;;;;;;;5.79;77.95;103282.06;5100036;28;20059;-68
2022/01/17 08:44:59;;;;;;;33.75;20.98;;;;;;;5.84;77.68;103265.91;5104908;28;20024;-69
2022/01/17 08:47:25;;;;;;;31.88;22.38;;;;;;;5.83;77.54;103258.69;5098105;28;20482;-66
2022/01/17 08:49:51;;;;;;;34.75;21.42;;;;;;;5.85;77.63;103256.59;5101271;28;20058;-68
2022/01/17 08:52:17;;;;;;;33.42;20.63;;;;;;;5.86;78.28;103253.72;5099499;28;20968;-66
2022/01/17 08:54:43;;;;;;;32.90;21.88;;;;;;;5.87;78.11;103265.59;5100297;28;20082;-66
2022/01/17 08:57:10;;;;;;;32.45;20.40;;;;;;;5.86;78.13;103263.88;5107792;28;20451;-65
2022/01/17 08:59:35;;;;;;;34.03;21.35;;;;;;;6.26;81.34;103270.66;5103506;28;20061;-64
2022/01/17 09:02:00;;;;;;;30.60;20.27;;;;;;;6.34;77.59;103273.44;5109557;28;20608;-65
2022/01/17 09:04:26;;;;;;;31.10;20.40;;;;;;;6.25;77.79;103268.91;5099403;28;20424;-66
2022/01/17 09:06:51;;;;;;;26.55;18.52;;;;;;;6.25;77.50;103274.41;5106578;28;20035;-67
2022/01/17 09:09:16;;;;;;;30.38;19.50;;;;;;;6.14;77.49;103284.72;5125222;27;20074;-65
2022/01/17 09:11:43;;;;;;;30.65;19.10;;;;;;;6.11;77.82;103279.53;5106738;27;20106;-65
2022/01/17 09:14:08;;;;;;;29.63;17.77;;;;;;;6.11;77.67;103282.28;5107404;27;20058;-65
2022/01/17 09:16:34;;;;;;;27.48;18.73;;;;;;;6.04;77.62;103275.69;5116652;27;20047;-66
2022/01/17 09:19:01;;;;;;;29.35;18.55;;;;;;;6.05;78.11;103296.75;5110711;27;20036;-67
2022/01/17 09:21:26;;;;;;;34.92;18.10;;;;;;;6.07;77.96;103316.75;5112585;27;20038;-69
2022/01/17 09:23:54;;;;;;;32.05;18.42;;;;;;;6.04;78.38;103317.06;5104378;27;20032;-64
2022/01/17 09:26:21;;;;;;;31.25;17.75;;;;;;;6.07;77.91;103315.88;5112234;27;20070;-64
2022/01/17 09:28:47;;;;;;;28.67;17.02;;;;;;;6.06;78.23;103330.69;5111867;27;20052;-67
2022/01/17 09:31:13;;;;;;;27.17;16.95;;;;;;;6.12;78.54;103330.03;5119631;27;20110;-67
2022/01/17 09:33:38;;;;;;;27.55;16.48;;;;;;;6.17;78.46;103333.19;5116305;27;20102;-67
2022/01/17 09:36:04;;;;;;;27.90;15.85;;;;;;;6.22;78.28;103324.41;5097330;27;20020;-67
2022/01/17 09:38:29;;;;;;;32.72;17.05;;;;;;;6.24;78.23;103322.34;5114324;27;20031;-68
2022/01/17 09:40:54;;;;;;;29.65;14.07;;;;;;;6.24;78.20;103320.44;5114157;27;20035;-67
2022/01/17 09:43:20;;;;;;;25.40;14.52;;;;;;;6.22;78.22;103324.41;5132410;27;20027;-67
2022/01/17 09:45:45;;;;;;;28.98;13.73;;;;;;;6.24;78.60;103325.09;5129953;27;20038;-67
2022/01/17 09:48:19;;;;;;;31.38;13.20;;;;;;;6.19;78.45;103335.78;5129396;27;20111;-67
2022/01/17 09:50:58;;;;;;;33.92;13.43;;;;;;;6.20;78.83;103338.34;5109125;27;20024;-68
2022/01/17 09:53:26;;;;;;;31.70;13.45;;;;;;;6.24;78.50;103344.41;5108149;27;20023;-68
2022/01/17 09:55:51;;;;;;;23.15;12.80;;;;;;;6.22;78.35;103343.72;5126766;27;20463;-68
2022/01/17 09:58:17;;;;;;;27.63;12.93;;;;;;;6.25;78.80;103347.03;5105838;27;20028;-68
2022/01/17 10:00:44;;;;;;;25.45;11.27;;;;;;;6.25;79.09;103371.84;5112372;27;20047;-67
2022/01/17 10:03:13;;;;;;;27.90;12.27;;;;;;;6.31;78.53;103384.09;5123264;27;20501;-67
2022/01/17 10:05:39;;;;;;;28.17;11.95;;;;;;;6.30;78.38;103368.59;5105594;28;20431;-67
2022/01/17 10:08:10;;;;;;;22.83;11.35;;;;;;;6.33;78.52;103354.47;5093418;28;20445;-67
2022/01/17 10:10:57;;;;;;;30.98;12.20;;;;;;;6.37;78.35;103370.53;5097996;28;20020;-68
2022/01/17 10:13:28;;;;;;;27.13;11.05;;;;;;;6.38;78.30;103352.94;5106048;28;20028;-68
2022/01/17 10:16:06;;;;;;;28.13;11.55;;;;;;;6.44;78.37;103365.19;5106726;27;20018;-71
2022/01/17 10:19:09;;;;;;;26.15;10.85;;;;;;;6.50;77.67;103366.47;5108328;27;20042;-71
2022/01/17 10:21:50;;;;;;;30.27;10.52;;;;;;;6.45;78.15;103360.59;4998429;28;20065;-69
2022/01/17 10:24:36;;;;;;;30.08;10.68;;;;;;;6.45;78.16;103355.91;5099220;28;20085;-65
2022/01/17 10:27:19;;;;;;;25.70;9.93;;;;;;;6.43;78.62;103370.91;5103449;28;20019;-66
2022/01/17 10:35:31;;;;;;;26.45;10.18;;;;;;;6.47;78.71;103375.06;5104052;28;20034;-67
2022/01/17 10:37:59;;;;;;;28.23;9.55;;;;;;;6.44;78.15;103378.13;5109758;28;20024;-65
2022/01/17 10:40:27;;;;;;;25.60;9.10;;;;;;;6.43;77.66;103381.94;5108438;28;20104;-66
2022/01/17 10:42:54;;;;;;;27.92;8.52;;;;;;;6.41;78.15;103384.88;5112673;28;20024;-66
2022/01/17 10:45:33;;;;;;;29.85;9.27;;;;;;;6.43;78.72;103379.19;5095865;28;20039;-67
2022/01/17 10:48:00;;;;;;;25.40;8.65;;;;;;;6.47;77.85;103381.44;5123752;27;20035;-66
2022/01/17 10:50:35;;;;;;;24.15;9.48;;;;;;;6.48;78.58;103399.72;5103643;27;20510;-68
2022/01/17 10:53:05;;;;;;;25.23;8.60;;;;;;;6.49;78.58;103378.53;5102957;28;20055;-66
2022/01/17 10:55:34;;;;;;;23.85;9.30;;;;;;;6.51;78.71;103404.91;5102420;28;20126;-67
2022/01/17 10:58:11;;;;;;;24.83;9.25;;;;;;;6.52;79.12;103403.00;5105102;27;20024;-65
2022/01/17 11:00:48;;;;;;;23.55;8.57;;;;;;;6.57;78.62;103414.44;5096924;27;20122;-67
2022/01/17 11:03:17;;;;;;;25.08;8.68;;;;;;;6.58;78.94;103406.00;5109883;27;20197;-64
2022/01/17 11:05:44;;;;;;;22.40;7.43;;;;;;;6.59;77.92;103399.44;5117531;27;20146;-64
2022/01/17 11:08:10;;;;;;;28.10;8.45;;;;;;;6.58;78.39;103418.94;5106174;27;20565;-64
2022/01/17 11:10:39;;;;;;;30.85;8.38;;;;;;;6.50;78.63;103414.22;5105257;27;20167;-68
2022/01/17 11:13:09;;;;;;;23.25;7.55;;;;;;;6.53;78.35;103433.22;5103049;27;20020;-62
2022/01/17 11:15:36;;;;;;;21.83;7.38;;;;;;;6.57;78.50;103428.25;5101254;27;20394;-66
2022/01/17 11:18:19;;;;;;;25.85;7.30;;;;;;;6.60;79.24;103426.03;5108068;27;20160;-67
2022/01/17 11:20:47;;;;;;;16.50;6.63;;;;;;;6.59;78.54;103427.03;5114426;27;20034;-66
2022/01/17 11:23:12;;;;;;;26.98;7.05;;;;;;;6.59;78.46;103417.88;5109686;27;20056;-66
2022/01/17 11:25:42;;;;;;;25.25;7.07;;;;;;;6.59;78.80;103404.09;5102161;27;20761;-67
2022/01/17 11:28:08;;;;;;;20.08;6.85;;;;;;;6.64;78.39;103401.69;5103000;28;20041;-68
2022/01/17 11:30:35;;;;;;;26.88;7.15;;;;;;;6.65;77.86;103389.66;5107234;27;20038;-68
2022/01/17 11:33:04;;;;;;;23.23;7.32;;;;;;;6.64;78.30;103394.31;5107156;27;20032;-69
2022/01/17 11:35:31;;;;;;;31.33;7.85;;;;;;;6.62;78.60;103390.84;5103244;27;20023;-68
2022/01/17 11:37:59;;;;;;;30.45;7.95;;;;;;;6.63;79.00;103378.75;5113703;27;20432;-68
2022/01/17 11:40:30;;;;;;;20.23;6.78;;;;;;;6.62;78.82;103377.03;5110741;27;20035;-68